createdAt,value
2023-02-20T00:00:02.507Z,7.25
2023-02-20T00:01:02.325Z,7.22
2023-02-20T00:02:03.460Z,7.21
2023-02-20T00:03:02.937Z,7.18
2023-02-20T00:04:03.428Z,7.17
2023-02-20T00:05:03.493Z,7.14
2023-02-20T00:06:02.966Z,7.05
2023-02-20T00:07:03.125Z,7.06
2023-02-20T00:08:02.662Z,7.00
2023-02-20T00:09:03.037Z,6.93
2023-02-20T00:10:02.773Z,6.91
2023-02-20T00:11:03.142Z,6.91
2023-02-20T00:12:03.233Z,6.90
2023-02-20T00:13:03.037Z,6.86
2023-02-20T00:14:02.757Z,6.80
2023-02-20T00:15:03.142Z,6.77
2023-02-20T00:16:02.880Z,6.75
2023-02-20T00:17:03.063Z,6.80
2023-02-20T00:18:03.254Z,6.83
2023-02-20T00:19:02.824Z,6.89
2023-02-20T00:20:03.321Z,6.92
2023-02-20T00:21:03.165Z,6.93
2023-02-20T00:22:02.811Z,6.92
2023-02-20T00:23:03.263Z,6.89
2023-02-20T00:24:02.990Z,6.79
2023-02-20T00:25:02.959Z,6.77
2023-02-20T00:26:03.348Z,6.79
2023-02-20T00:27:03.534Z,6.74
2023-02-20T00:28:02.956Z,6.73
2023-02-20T00:29:03.371Z,6.75
2023-02-20T00:30:03.103Z,6.79
2023-02-20T00:31:03.555Z,6.84
2023-02-20T00:32:03.161Z,6.84
2023-02-20T00:33:03.655Z,6.80
2023-02-20T00:34:03.279Z,6.70
2023-02-20T00:35:03.189Z,6.61
2023-02-20T00:36:03.619Z,6.52
2023-02-20T00:37:03.022Z,6.54
2023-02-20T00:38:02.583Z,6.53
2023-02-20T00:39:02.893Z,6.58
2023-02-20T00:40:02.612Z,6.62
2023-02-20T00:41:02.989Z,6.61
2023-02-20T00:42:02.524Z,6.58
2023-02-20T00:43:02.880Z,6.57
2023-02-20T00:44:02.605Z,6.52
2023-02-20T00:45:03.090Z,6.50
2023-02-20T00:46:03.015Z,6.49
2023-02-20T00:47:03.055Z,6.44
2023-02-20T00:48:03.044Z,6.35
2023-02-20T00:49:02.848Z,6.23
2023-02-20T00:50:03.159Z,6.13
2023-02-20T00:51:02.524Z,6.14
2023-02-20T00:52:03.618Z,6.15
2023-02-20T00:53:03.023Z,6.22
2023-02-20T00:54:03.252Z,6.18
2023-02-20T00:55:03.600Z,6.13
2023-02-20T00:56:03.063Z,6.06
2023-02-20T00:57:02.482Z,5.98
2023-02-20T00:58:02.628Z,5.90
2023-02-20T00:59:03.105Z,5.84
2023-02-20T01:00:02.646Z,5.77
2023-02-20T01:01:02.487Z,5.78
2023-02-20T01:02:01.978Z,5.84
2023-02-20T01:03:02.525Z,5.89
2023-02-20T01:04:02.001Z,5.90
2023-02-20T01:05:02.305Z,5.84
2023-02-20T01:06:02.102Z,5.79
2023-02-20T01:07:01.479Z,5.74
2023-02-20T01:08:01.955Z,5.74
2023-02-20T01:09:01.426Z,5.77
2023-02-20T01:10:01.446Z,5.75
2023-02-20T01:11:01.837Z,5.72
2023-02-20T01:12:01.543Z,5.73
2023-02-20T01:13:01.936Z,5.82
2023-02-20T01:14:01.958Z,5.87
2023-02-20T01:15:01.439Z,5.87
2023-02-20T01:16:01.478Z,5.91
2023-02-20T01:17:01.868Z,5.93
2023-02-20T01:18:02.315Z,5.86
2023-02-20T01:19:02.132Z,5.75
2023-02-20T01:20:01.860Z,5.68
2023-02-20T01:21:02.274Z,5.64
2023-02-20T01:22:01.926Z,5.63
2023-02-20T01:23:02.323Z,5.62
2023-02-20T01:24:02.090Z,5.62
2023-02-20T01:25:01.821Z,5.58
2023-02-20T01:26:02.247Z,5.51
2023-02-20T01:27:02.361Z,5.54
2023-02-20T01:28:02.022Z,5.61
2023-02-20T01:29:02.378Z,5.69
2023-02-20T01:30:02.047Z,5.72
2023-02-20T01:31:01.887Z,5.71
2023-02-20T01:32:02.424Z,5.65
2023-02-20T01:33:02.334Z,5.61
2023-02-20T01:34:02.753Z,5.58
2023-02-20T01:35:02.295Z,5.58
2023-02-20T01:36:02.774Z,5.55
2023-02-20T01:37:01.750Z,5.54
2023-02-20T01:38:02.011Z,5.59
2023-02-20T01:39:01.820Z,5.66
2023-02-20T01:40:01.628Z,5.72
2023-02-20T01:41:01.703Z,5.73
2023-02-20T01:42:02.170Z,5.74
2023-02-20T01:43:01.966Z,5.77
2023-02-20T01:44:01.949Z,5.78
2023-02-20T01:45:02.516Z,5.82
2023-02-20T01:46:01.984Z,5.80
2023-02-20T01:47:01.855Z,5.81
2023-02-20T01:48:01.591Z,5.83
2023-02-20T01:49:02.117Z,5.78
2023-02-20T01:50:01.603Z,5.78
2023-02-20T01:51:02.086Z,5.78
2023-02-20T01:52:02.239Z,5.83
2023-02-20T01:53:02.629Z,5.91
2023-02-20T01:54:02.799Z,5.93
2023-02-20T01:55:02.009Z,5.93
2023-02-20T01:56:02.514Z,5.91
2023-02-20T01:57:01.950Z,5.89
2023-02-20T01:58:01.650Z,5.84
2023-02-20T01:59:02.147Z,5.81
2023-02-20T02:00:01.913Z,5.82
2023-02-20T02:01:01.789Z,5.89
2023-02-20T02:02:02.228Z,5.91
2023-02-20T02:03:02.375Z,5.92
2023-02-20T02:04:01.856Z,5.95
2023-02-20T02:05:02.110Z,5.94
2023-02-20T02:06:01.837Z,5.94
2023-02-20T02:07:02.473Z,5.98
2023-02-20T02:08:02.872Z,5.99
2023-02-20T02:09:02.695Z,5.93
2023-02-20T02:10:02.489Z,5.86
2023-02-20T02:11:02.814Z,5.79
2023-02-20T02:12:02.252Z,5.85
2023-02-20T02:13:02.469Z,5.91
2023-02-20T02:14:02.003Z,5.89
2023-02-20T02:15:02.353Z,5.93
2023-02-20T02:16:02.072Z,5.91
2023-02-20T02:17:02.461Z,5.92
2023-02-20T02:18:02.361Z,5.92
2023-02-20T02:19:02.075Z,5.95
2023-02-20T02:20:02.546Z,5.97
2023-02-20T02:21:02.316Z,5.98
2023-02-20T02:22:02.487Z,5.99
2023-02-20T02:23:02.523Z,6.00
2023-02-20T02:24:02.875Z,5.95
2023-02-20T02:25:02.917Z,5.91
2023-02-20T02:26:02.471Z,5.90
2023-02-20T02:27:02.996Z,5.94
2023-02-20T02:28:03.204Z,5.91
2023-02-20T02:29:03.073Z,5.94
2023-02-20T02:30:02.824Z,5.93
2023-02-20T02:31:02.850Z,5.91
2023-02-20T02:32:02.035Z,5.93
2023-02-20T02:33:01.945Z,5.97
2023-02-20T02:34:02.162Z,5.91
2023-02-20T02:35:01.907Z,5.87
2023-02-20T02:36:02.457Z,5.83
2023-02-20T02:37:02.604Z,5.80
2023-02-20T02:38:02.352Z,5.78
2023-02-20T02:39:02.218Z,5.78
2023-02-20T02:40:02.573Z,5.87
2023-02-20T02:41:02.392Z,5.89
2023-02-20T02:42:02.016Z,5.87
2023-02-20T02:43:01.805Z,5.86
2023-02-20T02:44:01.653Z,5.90
2023-02-20T02:45:01.977Z,5.98
2023-02-20T02:46:01.847Z,6.05
2023-02-20T02:47:02.187Z,6.09
2023-02-20T02:48:01.912Z,6.10
2023-02-20T02:49:02.322Z,6.06
2023-02-20T02:50:02.321Z,6.01
2023-02-20T02:51:02.249Z,5.93
2023-02-20T02:52:02.662Z,5.91
2023-02-20T02:53:02.321Z,5.89
2023-02-20T02:54:02.763Z,5.87
2023-02-20T02:55:02.131Z,5.86
2023-02-20T02:56:02.472Z,5.85
2023-02-20T02:57:02.550Z,5.83
2023-02-20T02:58:03.048Z,5.87
2023-02-20T02:59:02.995Z,5.87
2023-02-20T03:00:02.817Z,5.87
2023-02-20T03:01:02.764Z,5.89
2023-02-20T03:02:01.655Z,5.87
2023-02-20T03:03:01.947Z,5.86
2023-02-20T03:04:02.309Z,5.84
2023-02-20T03:05:01.870Z,5.79
2023-02-20T03:06:01.686Z,5.81
2023-02-20T03:07:02.807Z,5.76
2023-02-20T03:08:02.347Z,5.73
2023-02-20T03:09:02.301Z,5.73
2023-02-20T03:10:02.606Z,5.71
2023-02-20T03:11:02.310Z,5.77
2023-02-20T03:12:02.475Z,5.74
2023-02-20T03:13:01.951Z,5.72
2023-02-20T03:14:02.304Z,5.70
2023-02-20T03:15:01.986Z,5.67
2023-02-20T03:16:02.404Z,5.60
2023-02-20T03:17:02.310Z,5.52
2023-02-20T03:18:02.592Z,5.46
2023-02-20T03:19:02.976Z,5.40
2023-02-20T03:20:02.386Z,5.35
2023-02-20T03:21:02.743Z,5.38
2023-02-20T03:22:01.804Z,5.38
2023-02-20T03:23:02.355Z,5.42
2023-02-20T03:24:01.689Z,5.43
2023-02-20T03:25:02.080Z,5.48
2023-02-20T03:26:01.680Z,5.47
2023-02-20T03:27:02.384Z,5.44
2023-02-20T03:28:01.780Z,5.44
2023-02-20T03:29:02.144Z,5.42
2023-02-20T03:30:01.878Z,5.38
2023-02-20T03:31:02.343Z,5.35
2023-02-20T03:32:01.954Z,5.31
2023-02-20T03:33:02.423Z,5.27
2023-02-20T03:34:02.193Z,5.26
2023-02-20T03:35:01.800Z,5.25
2023-02-20T03:36:02.155Z,5.26
2023-02-20T03:37:02.536Z,5.23
2023-02-20T03:38:01.985Z,5.25
2023-02-20T03:39:02.062Z,5.19
2023-02-20T03:40:02.463Z,5.24
2023-02-20T03:41:02.023Z,5.16
2023-02-20T03:42:03.072Z,5.17
2023-02-20T03:43:02.512Z,5.15
2023-02-20T03:44:02.942Z,5.15
2023-02-20T03:45:02.537Z,5.13
2023-02-20T03:46:02.753Z,5.09
2023-02-20T03:47:02.042Z,5.05
2023-02-20T03:48:02.397Z,5.01
2023-02-20T03:49:02.030Z,5.03
2023-02-20T03:50:02.369Z,5.06
2023-02-20T03:51:02.004Z,5.04
2023-02-20T03:52:02.993Z,4.97
2023-02-20T03:53:02.461Z,4.92
2023-02-20T03:54:02.806Z,4.87
2023-02-20T03:55:02.488Z,4.84
2023-02-20T03:56:02.973Z,4.91
2023-02-20T03:57:02.441Z,4.96
2023-02-20T03:58:02.906Z,4.99
2023-02-20T03:59:02.562Z,4.92
2023-02-20T04:00:02.896Z,4.92
2023-02-20T04:01:02.782Z,4.96
2023-02-20T04:02:02.451Z,4.98
2023-02-20T04:03:02.431Z,5.02
2023-02-20T04:04:02.494Z,5.03
2023-02-20T04:05:02.848Z,5.00
2023-02-20T04:06:02.635Z,5.01
2023-02-20T04:07:02.376Z,5.04
2023-02-20T04:08:02.577Z,5.06
2023-02-20T04:09:02.237Z,5.05
2023-02-20T04:10:02.575Z,5.08
2023-02-20T04:11:02.001Z,5.10
2023-02-20T04:12:02.598Z,5.07
2023-02-20T04:13:02.861Z,5.01
2023-02-20T04:14:02.285Z,4.96
2023-02-20T04:15:02.645Z,4.92
2023-02-20T04:16:02.640Z,4.90
2023-02-20T04:17:02.041Z,4.90
2023-02-20T04:18:01.694Z,4.89
2023-02-20T04:19:02.036Z,4.84
2023-02-20T04:20:02.119Z,4.88
2023-02-20T04:21:01.797Z,4.82
2023-02-20T04:22:02.397Z,4.75
2023-02-20T04:23:02.351Z,4.71
2023-02-20T04:24:02.168Z,4.69
2023-02-20T04:25:02.563Z,4.76
2023-02-20T04:26:02.137Z,4.77
2023-02-20T04:27:02.318Z,4.76
2023-02-20T04:28:02.794Z,4.77
2023-02-20T04:29:02.246Z,4.77
2023-02-20T04:30:02.357Z,4.76
2023-02-20T04:31:02.684Z,4.73
2023-02-20T04:32:02.458Z,4.71
2023-02-20T04:33:02.329Z,4.69
2023-02-20T04:34:02.347Z,4.67
2023-02-20T04:35:02.724Z,4.72
2023-02-20T04:36:02.484Z,4.72
2023-02-20T04:37:02.115Z,4.68
2023-02-20T04:38:01.720Z,4.65
2023-02-20T04:39:02.060Z,4.52
2023-02-20T04:40:01.678Z,4.45
2023-02-20T04:41:02.169Z,4.37
2023-02-20T04:42:02.305Z,4.34
2023-02-20T04:43:02.680Z,4.30
2023-02-20T04:44:02.760Z,4.28
2023-02-20T04:45:02.411Z,4.30
2023-02-20T04:46:02.422Z,4.31
2023-02-20T04:47:02.535Z,4.31
2023-02-20T04:48:02.683Z,4.34
2023-02-20T04:49:02.293Z,4.30
2023-02-20T04:50:02.654Z,4.25
2023-02-20T04:51:03.221Z,4.29
2023-02-20T04:52:02.069Z,4.30
2023-02-20T04:53:01.842Z,4.23
2023-02-20T04:54:02.287Z,4.15
2023-02-20T04:55:02.013Z,4.18
2023-02-20T04:56:02.335Z,4.25
2023-02-20T04:57:02.159Z,4.24
2023-02-20T04:58:02.487Z,4.19
2023-02-20T04:59:02.218Z,4.13
2023-02-20T05:00:02.229Z,4.15
2023-02-20T05:01:02.071Z,4.18
2023-02-20T05:02:02.523Z,4.19
2023-02-20T05:03:02.841Z,4.22
2023-02-20T05:04:02.843Z,4.23
2023-02-20T05:05:02.817Z,4.21
2023-02-20T05:06:02.814Z,4.20
2023-02-20T05:07:03.300Z,4.22
2023-02-20T05:08:02.787Z,4.25
2023-02-20T05:09:03.250Z,4.28
2023-02-20T05:10:03.138Z,4.32
2023-02-20T05:11:02.773Z,4.24
2023-02-20T05:12:03.120Z,4.16
2023-02-20T05:13:03.486Z,4.14
2023-02-20T05:14:03.360Z,4.18
2023-02-20T05:15:03.363Z,4.13
2023-02-20T05:16:03.087Z,4.10
2023-02-20T05:17:02.231Z,4.16
2023-02-20T05:18:02.666Z,4.10
2023-02-20T05:19:02.226Z,4.04
2023-02-20T05:20:02.321Z,4.10
2023-02-20T05:21:02.609Z,4.12
2023-02-20T05:22:02.898Z,4.07
2023-02-20T05:23:02.650Z,4.06
2023-02-20T05:24:05.470Z,4.09
2023-02-20T05:25:02.613Z,4.07
2023-02-20T05:26:02.984Z,4.12
2023-02-20T05:27:02.512Z,4.15
2023-02-20T05:28:02.397Z,4.21
2023-02-20T05:29:02.100Z,4.21
2023-02-20T05:30:02.532Z,4.22
2023-02-20T05:31:02.108Z,4.24
2023-02-20T05:32:02.498Z,4.21
2023-02-20T05:33:02.530Z,4.21
2023-02-20T05:34:02.524Z,4.18
2023-02-20T05:35:02.586Z,4.17
2023-02-20T05:36:02.420Z,4.16
2023-02-20T05:37:02.518Z,4.13
2023-02-20T05:38:02.894Z,4.15
2023-02-20T05:39:02.684Z,4.16
2023-02-20T05:40:02.405Z,4.16
2023-02-20T05:41:02.705Z,4.17
2023-02-20T05:42:01.954Z,4.14
2023-02-20T05:43:02.346Z,4.14
2023-02-20T05:44:02.028Z,4.16
2023-02-20T05:45:02.467Z,4.17
2023-02-20T05:46:02.042Z,4.17
2023-02-20T05:47:03.060Z,4.16
2023-02-20T05:48:02.587Z,4.15
2023-02-20T05:49:02.555Z,4.12
2023-02-20T05:50:02.745Z,4.11
2023-02-20T05:51:02.534Z,4.14
2023-02-20T05:52:02.553Z,4.14
2023-02-20T05:53:02.697Z,4.17
2023-02-20T05:54:02.203Z,4.15
2023-02-20T05:55:02.637Z,4.14
2023-02-20T05:56:02.374Z,4.13
2023-02-20T05:57:02.615Z,4.12
2023-02-20T05:58:02.690Z,4.12
2023-02-20T05:59:02.504Z,4.11
2023-02-20T06:00:02.710Z,4.09
2023-02-20T06:01:02.831Z,4.08
2023-02-20T06:02:02.747Z,4.07
2023-02-20T06:03:03.062Z,4.08
2023-02-20T06:04:02.979Z,4.06
2023-02-20T06:05:02.944Z,4.06
2023-02-20T06:06:02.644Z,4.08
2023-02-20T06:07:02.573Z,4.09
2023-02-20T06:08:02.004Z,4.10
2023-02-20T06:09:02.124Z,4.10
2023-02-20T06:10:02.637Z,4.10
2023-02-20T06:11:02.147Z,4.12
2023-02-20T06:12:02.736Z,4.13
2023-02-20T06:13:02.644Z,4.14
2023-02-20T06:14:02.173Z,4.15
2023-02-20T06:15:02.576Z,4.14
2023-02-20T06:16:02.253Z,4.15
2023-02-20T06:17:03.153Z,4.15
2023-02-20T06:18:02.696Z,4.12
2023-02-20T06:19:02.799Z,4.10
2023-02-20T06:20:02.622Z,4.09
2023-02-20T06:21:02.866Z,4.10
2023-02-20T06:22:03.154Z,4.08
2023-02-20T06:23:02.742Z,4.04
2023-02-20T06:24:03.021Z,4.02
2023-02-20T06:25:02.830Z,4.03
2023-02-20T06:26:02.733Z,4.00
2023-02-20T06:27:02.596Z,4.05
2023-02-20T06:28:02.388Z,4.04
2023-02-20T06:29:02.126Z,4.05
2023-02-20T06:30:02.643Z,4.11
2023-02-20T06:31:02.749Z,4.11
2023-02-20T06:32:02.328Z,4.08
2023-02-20T06:33:02.466Z,4.02
2023-02-20T06:34:02.285Z,4.02
2023-02-20T06:35:02.850Z,4.04
2023-02-20T06:36:02.382Z,3.98
2023-02-20T06:37:02.279Z,3.89
2023-02-20T06:38:02.846Z,3.84
2023-02-20T06:39:02.552Z,3.82
2023-02-20T06:40:02.304Z,3.82
2023-02-20T06:41:02.710Z,3.83
2023-02-20T06:42:02.747Z,3.86
2023-02-20T06:43:03.303Z,3.86
2023-02-20T06:44:03.070Z,3.82
2023-02-20T06:45:02.792Z,3.79
2023-02-20T06:46:03.085Z,3.74
2023-02-20T06:47:02.130Z,3.72
2023-02-20T06:48:02.620Z,3.71
2023-02-20T06:49:02.619Z,3.69
2023-02-20T06:50:02.364Z,3.70
2023-02-20T06:51:02.199Z,3.67
2023-02-20T06:52:04.228Z,3.63
2023-02-20T06:53:02.933Z,3.64
2023-02-20T06:54:02.793Z,3.61
2023-02-20T06:55:02.825Z,3.65
2023-02-20T06:56:02.784Z,3.70
2023-02-20T06:57:02.734Z,3.75
2023-02-20T06:58:03.233Z,3.82
2023-02-20T06:59:02.818Z,3.86
2023-02-20T07:00:02.671Z,3.87
2023-02-20T07:01:03.119Z,3.91
2023-02-20T07:02:02.052Z,3.93
2023-02-20T07:03:02.028Z,3.88
2023-02-20T07:04:02.989Z,3.86
2023-02-20T07:05:02.492Z,3.87
2023-02-20T07:06:02.175Z,3.84
2023-02-20T07:07:02.171Z,3.82
2023-02-20T07:08:02.412Z,3.82
2023-02-20T07:09:02.337Z,3.80
2023-02-20T07:10:02.290Z,3.77
2023-02-20T07:11:02.362Z,3.78
2023-02-20T07:12:02.217Z,3.83
2023-02-20T07:13:02.407Z,3.84
2023-02-20T07:14:02.606Z,3.82
2023-02-20T07:15:02.712Z,3.81
2023-02-20T07:16:02.436Z,3.86
2023-02-20T07:17:02.281Z,3.93
2023-02-20T07:18:02.411Z,4.00
2023-02-20T07:19:02.237Z,4.02
2023-02-20T07:20:02.199Z,4.07
2023-02-20T07:21:02.708Z,4.15
2023-02-20T07:22:01.790Z,4.15
2023-02-20T07:23:02.227Z,4.17
2023-02-20T07:24:01.865Z,4.20
2023-02-20T07:25:02.138Z,4.23
2023-02-20T07:26:01.641Z,4.26
2023-02-20T07:27:02.238Z,4.30
2023-02-20T07:28:02.679Z,4.35
2023-02-20T07:29:02.517Z,4.36
2023-02-20T07:30:02.507Z,4.37
2023-02-20T07:31:02.389Z,4.38
2023-02-20T07:32:02.590Z,4.38
2023-02-20T07:33:02.579Z,4.40
2023-02-20T07:34:02.523Z,4.39
2023-02-20T07:35:05.691Z,4.44
2023-02-20T07:36:02.923Z,4.45
2023-02-20T07:37:01.646Z,4.49
2023-02-20T07:38:01.982Z,4.52
2023-02-20T07:39:01.624Z,4.51
2023-02-20T07:40:02.053Z,4.52
2023-02-20T07:41:02.031Z,4.54
2023-02-20T07:42:01.952Z,4.55
2023-02-20T07:43:02.031Z,4.60
2023-02-20T07:44:02.101Z,4.63
2023-02-20T07:45:01.832Z,4.66
2023-02-20T07:46:01.660Z,4.68
2023-02-20T07:47:01.837Z,4.71
2023-02-20T07:48:01.825Z,4.77
2023-02-20T07:49:01.786Z,4.79
2023-02-20T07:50:02.245Z,4.80
2023-02-20T07:51:02.163Z,4.82
2023-02-20T07:52:02.287Z,4.87
2023-02-20T07:53:02.387Z,4.90
2023-02-20T07:54:02.528Z,4.95
2023-02-20T07:55:02.571Z,4.98
2023-02-20T07:56:02.176Z,5.00
2023-02-20T07:57:01.645Z,5.04
2023-02-20T07:58:01.757Z,5.06
2023-02-20T07:59:01.483Z,5.07
2023-02-20T08:00:01.960Z,5.08
2023-02-20T08:01:01.478Z,5.10
2023-02-20T08:02:02.085Z,5.12
2023-02-20T08:03:02.095Z,5.15
2023-02-20T08:04:01.763Z,5.17
2023-02-20T08:05:02.462Z,5.17
2023-02-20T08:06:02.125Z,5.18
2023-02-20T08:07:02.604Z,5.20
2023-02-20T08:08:02.696Z,5.25
2023-02-20T08:09:02.467Z,5.29
2023-02-20T08:10:02.392Z,5.33
2023-02-20T08:11:09.151Z,5.38
2023-02-20T08:12:02.368Z,5.43
2023-02-20T08:13:02.142Z,5.46
2023-02-20T08:14:02.149Z,5.51
2023-02-20T08:15:02.433Z,5.54
2023-02-20T08:16:02.564Z,5.60
2023-02-20T08:17:02.762Z,5.63
2023-02-20T08:18:05.991Z,5.70
2023-02-20T08:19:02.783Z,5.77
2023-02-20T08:20:03.030Z,5.83
2023-02-20T08:21:02.556Z,5.89
2023-02-20T08:22:02.341Z,5.93
2023-02-20T08:23:02.425Z,5.97
2023-02-20T08:24:02.279Z,6.02
2023-02-20T08:25:02.139Z,6.07
2023-02-20T08:26:02.253Z,6.11
2023-02-20T08:27:02.806Z,6.15
2023-02-20T08:28:02.932Z,6.22
2023-02-20T08:29:02.665Z,6.29
2023-02-20T08:30:02.626Z,6.35
2023-02-20T08:31:02.682Z,6.40
2023-02-20T08:32:02.093Z,6.42
2023-02-20T08:33:02.087Z,6.46
2023-02-20T08:34:02.011Z,6.52
2023-02-20T08:35:01.968Z,6.57
2023-02-20T08:36:02.013Z,6.60
2023-02-20T08:37:02.847Z,6.67
2023-02-20T08:38:03.638Z,6.74
2023-02-20T08:39:02.984Z,6.77
2023-02-20T08:40:02.766Z,6.78
2023-02-20T08:41:02.891Z,6.81
2023-02-20T08:42:03.050Z,6.88
2023-02-20T08:43:02.734Z,6.89
2023-02-20T08:44:02.575Z,6.94
2023-02-20T08:45:02.527Z,7.01
2023-02-20T08:46:02.700Z,7.05
2023-02-20T08:47:02.022Z,7.08
2023-02-20T08:48:01.930Z,7.14
2023-02-20T08:49:02.398Z,7.17
2023-02-20T08:50:02.115Z,7.25
2023-02-20T08:51:02.143Z,7.33
2023-02-20T08:52:02.461Z,7.41
2023-02-20T08:53:02.136Z,7.48
2023-02-20T08:54:02.026Z,7.54
2023-02-20T08:55:02.236Z,7.63
2023-02-20T08:56:02.345Z,7.72
2023-02-20T08:57:02.731Z,7.85
2023-02-20T08:58:02.476Z,7.98
2023-02-20T08:59:02.326Z,8.03
2023-02-20T09:00:02.386Z,8.13
2023-02-20T09:01:02.450Z,8.25
2023-02-20T09:02:03.206Z,8.35
2023-02-20T09:03:03.154Z,8.38
2023-02-20T09:04:02.985Z,8.41
2023-02-20T09:05:02.945Z,8.49
2023-02-20T09:06:02.713Z,8.52
2023-02-20T09:07:02.833Z,8.58
2023-02-20T09:08:02.944Z,8.60
2023-02-20T09:09:02.674Z,8.63
2023-02-20T09:10:02.596Z,8.69
2023-02-20T09:11:02.477Z,8.81
2023-02-20T09:12:03.184Z,8.98
2023-02-20T09:13:02.942Z,9.05
2023-02-20T09:14:02.880Z,9.13
2023-02-20T09:15:03.097Z,9.19
2023-02-20T09:16:02.982Z,9.23
2023-02-20T09:17:03.512Z,9.18
2023-02-20T09:18:03.685Z,9.14
2023-02-20T09:19:03.308Z,9.15
2023-02-20T09:20:03.132Z,9.13
2023-02-20T09:21:03.139Z,9.15
2023-02-20T09:22:02.867Z,9.19
2023-02-20T09:23:02.805Z,9.26
2023-02-20T09:24:02.466Z,9.34
2023-02-20T09:25:02.218Z,9.39
2023-02-20T09:26:02.585Z,9.49
2023-02-20T09:27:03.069Z,9.56
2023-02-20T09:28:03.008Z,9.62
2023-02-20T09:29:02.764Z,9.65
2023-02-20T09:30:02.746Z,9.69
2023-02-20T09:31:02.502Z,9.76
2023-02-20T09:32:03.560Z,9.83
2023-02-20T09:33:03.213Z,9.87
2023-02-20T09:34:03.080Z,9.89
2023-02-20T09:35:03.312Z,9.93
2023-02-20T09:36:03.113Z,9.91
2023-02-20T09:37:02.657Z,9.88
2023-02-20T09:38:02.762Z,9.85
2023-02-20T09:39:02.534Z,9.85
2023-02-20T09:40:02.839Z,9.91
2023-02-20T09:41:02.778Z,9.93
2023-02-20T09:42:02.159Z,9.95
2023-02-20T09:43:02.316Z,10.07
2023-02-20T09:44:02.666Z,10.21
2023-02-20T09:45:02.568Z,10.31
2023-02-20T09:46:02.426Z,10.39
2023-02-20T09:47:02.608Z,10.37
2023-02-20T09:48:02.538Z,10.36
2023-02-20T09:49:02.490Z,10.32
2023-02-20T09:50:02.969Z,10.32
2023-02-20T09:51:02.720Z,10.34
2023-02-20T09:52:02.985Z,10.43
2023-02-20T09:53:03.453Z,10.46
2023-02-20T09:54:03.122Z,10.47
2023-02-20T09:55:03.187Z,10.51
2023-02-20T09:56:03.539Z,10.50
2023-02-20T09:57:02.472Z,10.58
2023-02-20T09:58:02.412Z,10.68
2023-02-20T09:59:02.447Z,10.80
2023-02-20T10:00:05.908Z,10.91
2023-02-20T10:01:02.367Z,10.96
2023-02-20T10:02:02.733Z,11.04
2023-02-20T10:03:03.026Z,11.11
2023-02-20T10:04:02.963Z,11.26
2023-02-20T10:05:02.799Z,11.35
2023-02-20T10:06:02.772Z,11.46
2023-02-20T10:07:02.846Z,11.47
2023-02-20T10:08:02.766Z,11.42
2023-02-20T10:09:02.700Z,11.44
2023-02-20T10:10:02.779Z,11.50
2023-02-20T10:11:03.276Z,11.58
2023-02-20T10:12:02.365Z,11.67
2023-02-20T10:13:02.492Z,11.72
2023-02-20T10:14:02.956Z,11.82
2023-02-20T10:15:02.514Z,11.94
2023-02-20T10:16:02.453Z,11.94
2023-02-20T10:17:02.416Z,12.00
2023-02-20T10:18:02.569Z,12.06
2023-02-20T10:19:02.270Z,12.19
2023-02-20T10:20:02.735Z,12.32
2023-02-20T10:21:02.402Z,12.38
2023-02-20T10:22:02.792Z,12.36
2023-02-20T10:23:03.105Z,12.33
2023-02-20T10:24:05.797Z,12.35
2023-02-20T10:25:02.674Z,12.41
2023-02-20T10:26:02.607Z,12.54
2023-02-20T10:27:02.500Z,12.61
2023-02-20T10:28:02.429Z,12.62
2023-02-20T10:29:02.519Z,12.70
2023-02-20T10:30:02.372Z,12.74
2023-02-20T10:31:02.581Z,12.74
2023-02-20T10:32:02.417Z,12.77
2023-02-20T10:33:02.741Z,12.81
2023-02-20T10:34:02.483Z,12.90
2023-02-20T10:35:02.482Z,12.93
2023-02-20T10:36:02.777Z,12.98
2023-02-20T10:37:03.433Z,13.04
2023-02-20T10:38:03.326Z,13.10
2023-02-20T10:39:03.256Z,13.20
2023-02-20T10:40:03.475Z,13.29
2023-02-20T10:41:03.643Z,13.32
2023-02-20T10:42:02.892Z,13.40
2023-02-20T10:43:03.190Z,13.43
2023-02-20T10:44:02.928Z,13.50
2023-02-20T10:45:03.237Z,13.56
2023-02-20T10:46:02.863Z,13.57
2023-02-20T10:47:03.459Z,13.60
2023-02-20T10:48:03.391Z,13.68
2023-02-20T10:49:03.252Z,13.76
2023-02-20T10:50:03.203Z,13.84
2023-02-20T10:51:03.287Z,13.87
2023-02-20T10:52:02.892Z,13.83
2023-02-20T10:53:02.796Z,13.83
2023-02-20T10:54:02.905Z,13.88
2023-02-20T10:55:02.526Z,13.95
2023-02-20T10:56:02.521Z,13.97
2023-02-20T10:57:03.044Z,13.96
2023-02-20T10:58:02.867Z,13.95
2023-02-20T10:59:03.309Z,14.00
2023-02-20T11:00:03.293Z,14.05
2023-02-20T11:01:03.534Z,14.18
2023-02-20T11:02:03.048Z,14.12
2023-02-20T11:03:02.807Z,13.92
2023-02-20T11:04:02.867Z,13.79
2023-02-20T11:05:03.115Z,13.64
2023-02-20T11:06:03.045Z,13.56
2023-02-20T11:07:03.448Z,13.53
2023-02-20T11:08:03.448Z,13.48
2023-02-20T11:09:03.601Z,13.60
2023-02-20T11:10:03.174Z,13.74
2023-02-20T11:11:03.228Z,13.82
2023-02-20T11:12:02.858Z,13.89
2023-02-20T11:13:02.675Z,13.82
2023-02-20T11:14:02.398Z,13.79
2023-02-20T11:15:02.371Z,13.75
2023-02-20T11:16:02.822Z,13.76
2023-02-20T11:17:03.341Z,13.87
2023-02-20T11:18:03.235Z,13.94
2023-02-20T11:19:02.972Z,13.95
2023-02-20T11:20:02.900Z,14.04
2023-02-20T11:21:03.091Z,14.13
2023-02-20T11:22:02.865Z,14.17
2023-02-20T11:23:02.440Z,14.30
2023-02-20T11:24:02.660Z,14.51
2023-02-20T11:25:02.739Z,14.70
2023-02-20T11:26:02.495Z,14.84
2023-02-20T11:27:02.883Z,14.95
2023-02-20T11:28:02.916Z,14.99
2023-02-20T11:29:02.912Z,15.00
2023-02-20T11:30:02.986Z,14.93
2023-02-20T11:31:02.909Z,14.86
2023-02-20T11:32:03.650Z,14.83
2023-02-20T11:33:03.525Z,14.84
2023-02-20T11:34:03.598Z,14.99
2023-02-20T11:35:03.370Z,15.08
2023-02-20T11:36:03.285Z,15.06
2023-02-20T11:37:02.740Z,15.13
2023-02-20T11:38:02.480Z,15.22
2023-02-20T11:39:02.466Z,15.21
2023-02-20T11:40:02.467Z,15.20
2023-02-20T11:41:02.338Z,15.24
2023-02-20T11:42:02.845Z,15.37
2023-02-20T11:43:02.500Z,15.50
2023-02-20T11:44:02.335Z,15.63
2023-02-20T11:45:02.314Z,15.75
2023-02-20T11:46:02.420Z,15.86
2023-02-20T11:47:03.523Z,15.92
2023-02-20T11:48:03.260Z,15.86
2023-02-20T11:49:03.071Z,15.90
2023-02-20T11:50:18.087Z,15.96
2023-02-20T11:51:03.116Z,15.89
2023-02-20T11:52:02.897Z,15.82
2023-02-20T11:53:02.798Z,15.63
2023-02-20T11:54:02.339Z,15.66
2023-02-20T11:55:02.318Z,15.73
2023-02-20T11:56:02.284Z,15.72
2023-02-20T11:58:02.585Z,15.68
2023-02-20T11:59:02.776Z,15.75
2023-02-20T12:00:02.788Z,15.87
2023-02-20T12:01:02.471Z,15.99
2023-02-20T12:02:01.786Z,16.08
2023-02-20T12:03:01.937Z,16.09
2023-02-20T12:04:02.041Z,16.04
2023-02-20T12:05:02.114Z,16.07
2023-02-20T12:06:02.616Z,16.17
2023-02-20T12:07:02.411Z,16.16
2023-02-20T12:08:02.514Z,16.25
2023-02-20T12:09:02.504Z,16.33
2023-02-20T12:10:02.706Z,16.42
2023-02-20T12:11:02.730Z,16.24
2023-02-20T12:12:02.588Z,16.06
2023-02-20T12:13:01.720Z,16.03
2023-02-20T12:14:01.815Z,16.09
2023-02-20T12:15:01.799Z,16.25
2023-02-20T12:16:01.791Z,16.37
2023-02-20T12:17:02.003Z,16.47
2023-02-20T12:18:02.818Z,16.54
2023-02-20T12:19:02.422Z,16.44
2023-02-20T12:20:02.675Z,16.42
2023-02-20T12:21:02.725Z,16.46
2023-02-20T12:22:02.614Z,16.43
2023-02-20T12:23:02.470Z,16.43
2023-02-20T12:24:02.243Z,16.50
2023-02-20T12:25:02.247Z,16.61
2023-02-20T12:26:02.026Z,16.72
2023-02-20T12:27:02.044Z,16.78
2023-02-20T12:28:02.730Z,16.86
2023-02-20T12:29:02.609Z,16.90
2023-02-20T12:30:02.666Z,16.94
2023-02-20T12:31:03.176Z,17.02
2023-02-20T12:32:02.982Z,17.03
2023-02-20T12:33:02.529Z,17.00
2023-02-20T12:34:03.130Z,17.01
2023-02-20T12:35:02.797Z,17.06
2023-02-20T12:36:02.654Z,17.08
2023-02-20T12:37:02.627Z,17.11
2023-02-20T12:38:02.480Z,16.94
2023-02-20T12:39:02.063Z,16.70
2023-02-20T12:40:02.556Z,16.60
2023-02-20T12:41:02.188Z,16.63
2023-02-20T12:42:02.605Z,16.75
2023-02-20T12:43:02.488Z,16.87
2023-02-20T12:44:12.791Z,16.96
2023-02-20T12:45:02.377Z,16.99
2023-02-20T12:46:02.294Z,17.07
2023-02-20T12:47:02.424Z,17.11
2023-02-20T12:48:02.454Z,16.99
2023-02-20T12:49:02.311Z,17.03
2023-02-20T12:50:02.006Z,17.06
2023-02-20T12:51:02.249Z,17.10
2023-02-20T12:52:01.852Z,17.22
2023-02-20T12:53:02.457Z,17.26
2023-02-20T12:54:02.463Z,17.22
2023-02-20T12:55:02.377Z,17.22
2023-02-20T12:56:02.732Z,17.17
2023-02-20T12:57:02.299Z,17.15
2023-02-20T12:58:01.691Z,17.17
2023-02-20T12:59:01.736Z,17.15
2023-02-20T13:00:02.107Z,16.98
2023-02-20T13:01:02.402Z,16.83
2023-02-20T13:02:01.892Z,16.85
2023-02-20T13:03:02.476Z,16.96
2023-02-20T13:04:02.408Z,17.04
2023-02-20T13:05:02.431Z,17.05
2023-02-20T13:06:02.539Z,17.10
2023-02-20T13:07:02.686Z,17.20
2023-02-20T13:08:03.249Z,17.29
2023-02-20T13:09:02.917Z,17.34
2023-02-20T13:10:02.959Z,17.33
2023-02-20T13:11:02.886Z,17.32
2023-02-20T13:12:02.763Z,17.35